Time;durP1;ratioP1;P1;durP2;ratioP2;P2;SDS_P1;SDS_P2;PMS_P1;PMS_P2;Temp;Humidity;BMP_temperature;BMP_pressure;BME280_temperature;BME280_humidity;BME280_pressure;Samples;Min_cycle;Max_cycle;Signal;HPM_P1;HPM_P2
2023/10/15 00:00:34;;;;;;;10.90;4.10;;;;;;;19.22;100.00;100224.15;105968;1259;61445;-82
2023/10/15 00:03:03;;;;;;;6.30;4.20;;;;;;;19.21;100.00;100222.08;105766;1259;61439;-82
2023/10/15 00:05:31;;;;;;;4.70;3.60;;;;;;;19.18;100.00;100219.65;105723;1259;74864;-82
2023/10/15 00:07:59;;;;;;;7.10;3.50;;;;;;;19.23;100.00;100221.11;105781;1264;67189;-85
2023/10/15 00:10:27;;;;;;;5.90;3.80;;;;;;;19.21;100.00;100217.33;105807;1260;72768;-85
2023/10/15 00:12:56;;;;;;;13.40;4.30;;;;;;;19.19;100.00;100215.20;105825;1262;60758;-85
2023/10/15 00:15:27;;;;;;;7.10;3.80;;;;;;;19.16;100.00;100211.35;105780;1259;61372;-82
2023/10/15 00:18:01;;;;;;;6.60;3.90;;;;;;;19.17;100.00;100211.38;105724;1262;74692;-82
2023/10/15 00:20:35;;;;;;;5.00;4.00;;;;;;;19.12;100.00;100205.99;105862;1259;67139;-85
2023/10/15 00:23:06;;;;;;;6.50;3.70;;;;;;;19.07;100.00;100207.09;105783;1259;72655;-85
2023/10/15 00:25:36;;;;;;;5.70;3.90;;;;;;;19.00;100.00;100207.23;105718;1259;61629;-85
2023/10/15 00:28:11;;;;;;;7.60;4.00;;;;;;;19.02;100.00;100203.98;105818;1259;61373;-84
2023/10/15 00:30:39;;;;;;;6.60;3.90;;;;;;;19.06;100.00;100203.73;105787;1260;74771;-82
2023/10/15 00:33:18;;;;;;;8.90;3.90;;;;;;;19.09;100.00;100203.05;105621;1259;68503;-82
2023/10/15 00:35:46;;;;;;;4.80;3.20;;;;;;;19.11;100.00;100197.35;105775;1261;72699;-82
2023/10/15 00:38:17;;;;;;;9.00;4.00;;;;;;;19.08;100.00;100188.47;105836;1259;61417;-82
2023/10/15 00:40:51;;;;;;;6.40;3.60;;;;;;;19.00;100.00;100187.84;105755;1262;61360;-85
2023/10/15 00:43:21;;;;;;;6.40;3.60;;;;;;;18.95;100.00;100181.52;105819;1264;73475;-85
2023/10/15 00:45:51;;;;;;;6.10;3.70;;;;;;;18.85;100.00;100177.88;105839;1264;67181;-82
2023/10/15 00:48:24;;;;;;;4.80;2.80;;;;;;;18.83;100.00;100175.52;105992;1259;72624;-85
2023/10/15 00:50:58;;;;;;;5.90;3.30;;;;;;;18.80;100.00;100173.95;105661;1259;61379;-82
2023/10/15 00:53:29;;;;;;;6.60;3.60;;;;;;;18.77;100.00;100175.38;105928;1259;61378;-85
2023/10/15 00:56:03;;;;;;;5.20;3.30;;;;;;;18.78;100.00;100174.98;105720;1261;74527;-82
2023/10/15 00:58:32;;;;;;;;;;;;;;;18.81;100.00;100170.08;105791;1264;69043;-82
2023/10/15 01:01:20;;;;;;;5.20;3.10;;;;;;;18.80;100.00;100163.54;105673;1259;72699;-82
2023/10/15 01:03:59;;;;;;;3.90;2.60;;;;;;;18.78;100.00;100155.16;105769;1263;61253;-85
2023/10/15 01:09:09;;;;;;;6.40;2.70;;;;;;;18.72;100.00;100147.70;105807;1260;74651;-84
2023/10/15 01:11:43;;;;;;;5.10;2.40;;;;;;;18.71;100.00;100151.08;105848;1259;67333;-81
2023/10/15 01:14:13;;;;;;;5.60;2.40;;;;;;;18.75;100.00;100152.42;105852;1259;72683;-84
2023/10/15 01:16:41;;;;;;;7.00;2.80;;;;;;;18.76;100.00;100151.84;105761;1259;61881;-81
2023/10/15 01:21:53;;;;;;;9.40;2.80;;;;;;;18.78;100.00;100152.77;105795;1259;73780;-82
2023/10/15 01:24:22;;;;;;;5.20;2.70;;;;;;;18.72;100.00;100153.88;105824;1259;68362;-81
2023/10/15 01:26:59;;;;;;;5.10;2.60;;;;;;;18.70;100.00;100154.70;105743;1262;71108;-83
2023/10/15 01:29:28;;;;;;;6.00;2.30;;;;;;;18.70;100.00;100160.35;106050;1259;61600;-84
2023/10/15 01:31:58;;;;;;;5.00;2.00;;;;;;;18.63;100.00;100155.08;105756;1259;61893;-84
2023/10/15 01:34:27;;;;;;;5.10;2.40;;;;;;;18.68;100.00;100149.53;105831;1259;73900;-81
2023/10/15 01:36:57;;;;;;;3.30;2.30;;;;;;;18.59;100.00;100146.71;105812;1259;68831;-83
2023/10/15 01:39:39;;;;;;;6.00;2.70;;;;;;;18.57;100.00;100145.60;105893;1260;70785;-81
2023/10/15 01:42:28;;;;;;;6.50;2.20;;;;;;;18.65;100.00;100147.77;105676;1262;61144;-83
2023/10/15 01:45:13;;;;;;;5.90;2.10;;;;;;;18.66;100.00;100145.84;105815;1262;61172;-83
2023/10/15 01:50:23;;;;;;;3.10;2.00;;;;;;;18.69;100.00;100147.15;105712;1259;68771;-83
2023/10/15 02:46:01;;;;;;;3.50;2.30;;;;;;;18.26;100.00;100097.64;105719;1265;74693;-83
2023/10/15 02:48:32;;;;;;;3.00;1.60;;;;;;;18.28;100.00;100093.64;105819;1262;68740;-81
2023/10/15 02:51:00;;;;;;;3.20;2.10;;;;;;;18.29;100.00;100095.29;105919;1259;72460;-81
2023/10/15 02:53:46;;;;;;;4.40;2.10;;;;;;;18.24;100.00;100087.52;105831;1259;61293;-81
2023/10/15 02:56:14;;;;;;;5.20;2.20;;;;;;;18.23;100.00;100084.25;105734;1259;61318;-85
2023/10/15 02:58:46;;;;;;;3.60;1.90;;;;;;;18.29;100.00;100076.63;105654;1259;74596;-86
2023/10/15 03:01:17;;;;;;;4.10;2.70;;;;;;;18.35;100.00;100074.09;105894;1264;67380;-86
2023/10/15 03:03:49;;;;;;;3.70;2.00;;;;;;;18.41;100.00;100073.34;105742;1260;73151;-85
2023/10/15 03:06:24;;;;;;;6.00;2.00;;;;;;;18.45;100.00;100077.20;106255;1259;61655;-86
2023/10/15 03:08:52;;;;;;;5.90;1.90;;;;;;;18.56;100.00;100078.59;105794;1259;61251;-86
2023/10/15 03:11:23;;;;;;;4.60;1.90;;;;;;;18.54;100.00;100084.79;105844;1260;74700;-89
2023/10/15 03:16:24;;;;;;;3.20;2.30;;;;;;;18.54;100.00;100086.65;105825;1259;72661;-85
2023/10/15 03:18:52;;;;;;;5.40;2.40;;;;;;;18.53;100.00;100081.65;106219;1260;62061;-91
2023/10/15 03:21:27;;;;;;;7.40;2.20;;;;;;;18.47;100.00;100073.58;105770;1264;61194;-85
2023/10/15 03:23:56;;;;;;;6.50;2.10;;;;;;;18.50;100.00;100074.36;105689;1259;74667;-90
2023/10/15 03:26:24;;;;;;;3.10;2.00;;;;;;;18.53;100.00;100072.89;105628;1265;68397;-86
2023/10/15 03:28:55;;;;;;;4.70;2.00;;;;;;;18.59;100.00;100071.11;105691;1259;71427;-90
2023/10/15 03:31:32;;;;;;;3.10;2.00;;;;;;;18.67;100.00;100067.98;105807;1260;61398;-85
2023/10/15 03:36:42;;;;;;;3.30;2.00;;;;;;;18.62;100.00;100063.47;105860;1264;74695;-86
2023/10/15 03:39:16;;;;;;;2.90;2.00;;;;;;;18.70;100.00;100061.20;105874;1261;67855;-90
2023/10/15 03:41:53;;;;;;;4.60;2.20;;;;;;;18.68;100.00;100062.80;105843;1262;72597;-86
2023/10/15 03:44:27;;;;;;;4.30;2.40;;;;;;;18.68;100.00;100057.68;106036;1265;61281;-86
2023/10/15 03:47:03;;;;;;;5.00;1.90;;;;;;;18.66;100.00;100054.54;105884;1260;61315;-86
2023/10/15 03:49:31;;;;;;;7.00;2.10;;;;;;;18.69;100.00;100054.64;105821;1259;73633;-86
2023/10/15 03:52:06;;;;;;;5.80;2.80;;;;;;;18.68;100.00;100055.21;105701;1265;67596;-89
2023/10/15 03:54:37;;;;;;;4.50;2.40;;;;;;;18.66;100.00;100054.52;105774;1259;71442;-86
2023/10/15 03:57:11;;;;;;;3.40;2.30;;;;;;;18.65;100.00;100051.96;106256;1260;61239;-86
2023/10/15 04:00:06;;;;;;;3.30;2.80;;;;;;;18.61;100.00;100049.59;105822;1259;61456;-90
2023/10/15 04:03:22;;;;;;;6.10;2.50;;;;;;;18.69;100.00;100044.58;105753;1260;73415;-85
2023/10/15 04:05:29;;;;;;;2.90;2.30;;;;;;;18.65;100.00;100040.51;105787;1262;67242;-86
2023/10/15 04:07:57;;;;;;;4.80;2.30;;;;;;;18.65;100.00;100036.36;105675;1267;72511;-85
2023/10/15 04:10:34;;;;;;;4.70;2.20;;;;;;;18.66;100.00;100040.23;106095;1265;61377;-91
2023/10/15 04:13:04;;;;;;;5.10;2.40;;;;;;;18.67;100.00;100041.67;105725;1262;61434;-86
2023/10/15 04:15:34;;;;;;;5.10;2.60;;;;;;;18.69;100.00;100038.17;105811;1264;73431;-90
2023/10/15 04:18:08;;;;;;;4.20;2.20;;;;;;;18.67;100.00;100038.98;105968;1261;68414;-85
2023/10/15 04:20:40;;;;;;;5.30;2.40;;;;;;;18.68;100.00;100039.25;105801;1259;71763;-92
2023/10/15 04:23:20;;;;;;;7.10;2.00;;;;;;;18.73;100.00;100036.66;105901;1260;61680;-84
2023/10/15 04:25:48;;;;;;;4.70;2.20;;;;;;;18.79;100.00;100039.51;106142;1259;61169;-90
2023/10/15 04:28:19;;;;;;;3.20;2.20;;;;;;;18.83;100.00;100037.67;105735;1262;73616;-85
2023/10/15 04:30:46;;;;;;;4.90;2.30;;;;;;;18.90;100.00;100040.17;105608;1268;66829;-85
2023/10/15 04:33:14;;;;;;;4.80;2.30;;;;;;;19.01;100.00;100038.46;105681;1266;72672;-90
2023/10/15 04:35:42;;;;;;;5.10;2.70;;;;;;;19.01;100.00;100039.98;105750;1259;61362;-85
2023/10/15 04:39:13;;;;;;;3.10;2.40;;;;;;;19.02;100.00;100040.95;106121;1263;59872;-85
2023/10/15 04:41:21;;;;;;;4.10;2.40;;;;;;;19.03;100.00;100049.11;105815;1264;74682;-85
2023/10/15 04:43:49;;;;;;;4.30;2.50;;;;;;;19.06;100.00;100043.46;105676;1262;68616;-85
2023/10/15 04:46:25;;;;;;;3.60;2.20;;;;;;;19.14;100.00;100038.33;105651;1260;72660;-85
2023/10/15 04:48:55;;;;;;;7.00;2.00;;;;;;;19.20;100.00;100037.02;106227;1259;61448;-89
2023/10/15 04:51:38;;;;;;;3.20;2.40;;;;;;;19.30;100.00;100034.73;105898;1259;61360;-84
2023/10/15 04:54:06;;;;;;;8.10;2.90;;;;;;;19.43;100.00;100034.95;105791;1259;73443;-85
2023/10/15 04:56:34;;;;;;;6.10;2.70;;;;;;;19.51;100.00;100034.34;105965;1259;68403;-85
2023/10/15 04:59:01;;;;;;;7.00;2.80;;;;;;;19.64;100.00;100032.75;105802;1260;72757;-90
2023/10/15 05:01:30;;;;;;;4.30;2.60;;;;;;;19.75;100.00;100036.27;105777;1263;61395;-85
2023/10/15 05:04:00;;;;;;;7.90;3.00;;;;;;;19.85;100.00;100041.06;106579;1263;61334;-90
2023/10/15 05:06:28;;;;;;;3.90;2.50;;;;;;;19.98;100.00;100044.60;105844;1259;74650;-85
2023/10/15 05:08:57;;;;;;;3.60;2.20;;;;;;;20.19;100.00;100040.73;105830;1259;68343;-85
2023/10/15 05:11:25;;;;;;;5.40;2.50;;;;;;;20.38;100.00;100045.15;105758;1262;71138;-90
2023/10/15 05:13:55;;;;;;;4.50;2.20;;;;;;;20.55;100.00;100044.58;105934;1264;61373;-85
2023/10/15 05:16:23;;;;;;;4.80;2.40;;;;;;;20.64;100.00;100042.92;106478;1264;61402;-85
2023/10/15 05:18:51;;;;;;;5.70;2.70;;;;;;;20.73;100.00;100042.05;105825;1259;74686;-85
2023/10/15 05:21:19;;;;;;;3.90;2.60;;;;;;;20.79;100.00;100045.60;105856;1259;68540;-90
2023/10/15 05:23:47;;;;;;;3.40;2.00;;;;;;;20.78;100.00;100045.27;105848;1259;72091;-90
2023/10/15 05:26:16;;;;;;;6.00;2.70;;;;;;;20.84;100.00;100040.74;105783;1263;61243;-86
2023/10/15 05:28:44;;;;;;;6.30;2.70;;;;;;;20.94;100.00;100038.83;106933;1259;61237;-85
2023/10/15 05:31:11;;;;;;;4.40;2.20;;;;;;;20.97;100.00;100036.30;105671;1259;74665;-85
2023/10/15 05:33:39;;;;;;;4.50;2.30;;;;;;;21.05;100.00;100035.38;105758;1259;68382;-84
2023/10/15 05:36:08;;;;;;;3.30;2.30;;;;;;;21.11;100.00;100034.88;105690;1259;71142;-91
2023/10/15 05:38:36;;;;;;;6.50;2.50;;;;;;;21.14;100.00;100038.28;105804;1265;61242;-90
2023/10/15 05:41:04;;;;;;;5.30;2.70;;;;;;;21.16;100.00;100036.34;106244;1260;61369;-91
2023/10/15 05:43:32;;;;;;;5.40;2.70;;;;;;;21.29;100.00;100032.52;106426;1265;73426;-85
2023/10/15 05:46:00;;;;;;;10.00;2.70;;;;;;;21.31;100.00;100025.83;105728;1262;67195;-90
2023/10/15 05:48:27;;;;;;;5.10;2.40;;;;;;;21.30;100.00;100023.65;105939;1259;72747;-85
2023/10/15 05:50:55;;;;;;;5.00;2.60;;;;;;;21.33;100.00;100017.98;105712;1260;61724;-85
2023/10/15 05:53:24;;;;;;;3.30;2.30;;;;;;;21.35;100.00;100014.56;105986;1262;61360;-86
2023/10/15 05:55:52;;;;;;;4.40;2.50;;;;;;;21.38;100.00;100010.73;106340;1262;73905;-85
2023/10/15 05:58:20;;;;;;;3.90;2.50;;;;;;;21.41;100.00;100009.15;106222;1262;67275;-90
2023/10/15 06:00:47;;;;;;;6.10;2.70;;;;;;;21.45;100.00;100004.88;105721;1262;72696;-91
2023/10/15 06:03:15;;;;;;;4.80;2.60;;;;;;;21.49;100.00;100005.98;105854;1259;61855;-85
2023/10/15 06:05:45;;;;;;;4.90;2.50;;;;;;;21.49;100.00;100006.63;105714;1259;61292;-91
2023/10/15 06:08:14;;;;;;;3.80;2.20;;;;;;;21.47;100.00;100005.64;106535;1259;74645;-91
2023/10/15 06:10:43;;;;;;;6.70;2.50;;;;;;;21.52;100.00;99999.64;106047;1259;67117;-86
2023/10/15 06:13:11;;;;;;;5.50;2.60;;;;;;;21.57;100.00;99999.34;105755;1262;71523;-82
2023/10/15 06:15:39;;;;;;;6.50;2.50;;;;;;;21.63;100.00;100002.48;105891;1264;61169;-82
2023/10/15 06:18:09;;;;;;;6.50;2.20;;;;;;;21.67;100.00;100003.44;105964;1260;61241;-83
2023/10/15 06:20:37;;;;;;;5.70;2.80;;;;;;;21.70;100.00;100000.41;105916;1260;74755;-84
2023/10/15 06:23:07;;;;;;;5.50;2.70;;;;;;;21.67;100.00;100008.52;106069;1259;67314;-86
2023/10/15 06:25:38;;;;;;;3.50;2.20;;;;;;;21.66;100.00;100005.48;106131;1261;71414;-84
2023/10/15 06:28:13;;;;;;;9.60;2.90;;;;;;;21.65;100.00;100001.81;105820;1259;61947;-89
2023/10/15 06:30:43;;;;;;;3.90;2.40;;;;;;;21.68;100.00;99998.55;105889;1260;61283;-85
2023/10/15 06:33:11;;;;;;;4.90;3.20;;;;;;;21.73;100.00;100001.52;105954;1261;73669;-89
2023/10/15 06:35:40;;;;;;;6.80;3.00;;;;;;;21.72;100.00;100004.11;105956;1262;67691;-84
2023/10/15 06:38:08;;;;;;;4.00;2.50;;;;;;;21.73;100.00;100000.31;106035;1262;71061;-84
2023/10/15 06:40:38;;;;;;;5.90;2.40;;;;;;;21.73;100.00;100005.63;105866;1262;61118;-84
2023/10/15 06:43:06;;;;;;;7.40;2.70;;;;;;;21.71;100.00;100007.50;105798;1263;60824;-84
2023/10/15 06:45:34;;;;;;;4.80;2.60;;;;;;;21.72;100.00;100009.19;105870;1262;73640;-84
2023/10/15 06:48:03;;;;;;;5.30;2.60;;;;;;;21.69;100.00;100011.92;106073;1259;68340;-85
2023/10/15 06:50:33;;;;;;;7.00;3.00;;;;;;;21.70;100.00;100015.65;106187;1261;72691;-84
2023/10/15 06:53:01;;;;;;;6.10;2.60;;;;;;;21.72;100.00;100013.56;105919;1259;61262;-85
2023/10/15 06:55:31;;;;;;;5.70;2.90;;;;;;;21.71;100.00;100016.70;106025;1263;61362;-90
2023/10/15 06:58:01;;;;;;;5.80;2.80;;;;;;;21.70;100.00;100013.84;105939;1259;75097;-88
2023/10/15 07:00:31;;;;;;;4.70;2.60;;;;;;;21.71;100.00;100011.55;106296;1260;68379;-91
2023/10/15 07:03:00;;;;;;;4.10;2.40;;;;;;;21.60;100.00;100009.25;105908;1265;71783;-91
2023/10/15 07:05:28;;;;;;;5.50;3.30;;;;;;;21.64;100.00;100003.30;105984;1260;61295;-89
2023/10/15 07:08:00;;;;;;;4.10;2.70;;;;;;;21.69;100.00;100000.39;105819;1259;61218;-90
2023/10/15 07:10:28;;;;;;;6.70;2.40;;;;;;;21.67;100.00;100002.96;105833;1260;74668;-89
2023/10/15 07:12:56;;;;;;;4.60;2.70;;;;;;;21.65;100.00;99998.06;105850;1265;68408;-89
2023/10/15 07:15:24;;;;;;;5.80;2.90;;;;;;;21.65;100.00;99999.74;105739;1265;72505;-91
2023/10/15 07:17:53;;;;;;;6.50;3.30;;;;;;;21.70;100.00;100002.45;106647;1259;61172;-91
2023/10/15 07:20:24;;;;;;;6.70;2.90;;;;;;;21.73;100.00;100000.79;105970;1263;61511;-89
2023/10/15 07:22:53;;;;;;;5.70;2.80;;;;;;;21.78;100.00;100001.14;105804;1260;76446;-90
2023/10/15 07:25:22;;;;;;;6.70;2.70;;;;;;;21.85;100.00;100000.09;105855;1262;67599;-91
2023/10/15 07:27:49;;;;;;;5.90;3.00;;;;;;;21.91;100.00;100002.02;105888;1259;73134;-90
2023/10/15 07:30:21;;;;;;;5.20;2.50;;;;;;;21.98;100.00;99993.89;105648;1265;61453;-90
2023/10/15 07:32:58;;;;;;;5.90;2.70;;;;;;;22.07;100.00;99997.96;106562;1261;61250;-90
2023/10/15 07:35:28;;;;;;;6.10;3.30;;;;;;;22.03;100.00;99997.65;105941;1264;75033;-91
2023/10/15 07:37:56;;;;;;;4.10;2.40;;;;;;;21.98;100.00;99996.98;105792;1265;67470;-90
2023/10/15 07:40:27;;;;;;;7.10;3.00;;;;;;;22.04;100.00;99999.65;105756;1265;71135;-91
2023/10/15 07:42:59;;;;;;;4.80;2.40;;;;;;;22.05;100.00;100004.38;105863;1260;61370;-89
2023/10/15 07:45:30;;;;;;;4.50;3.00;;;;;;;22.06;100.00;100009.14;106480;1262;61209;-91
2023/10/15 07:48:04;;;;;;;3.70;2.60;;;;;;;22.07;100.00;100009.08;105728;1262;74664;-89
2023/10/15 07:50:34;;;;;;;5.70;2.90;;;;;;;22.12;100.00;100002.59;105750;1262;68723;-89
2023/10/15 07:53:03;;;;;;;4.90;2.50;;;;;;;22.08;100.00;100004.26;106111;1262;70969;-89
2023/10/15 07:55:32;;;;;;;7.00;3.50;;;;;;;22.09;100.00;100006.56;106719;1265;60086;-89
2023/10/15 07:58:00;;;;;;;3.80;2.70;;;;;;;22.05;100.00;100004.69;106329;1264;61262;-90
2023/10/15 08:00:30;;;;;;;3.00;2.60;;;;;;;22.04;100.00;99999.73;106222;1265;73430;-90
2023/10/15 08:02:59;;;;;;;8.50;3.30;;;;;;;22.02;100.00;100000.34;105958;1265;67311;-89
2023/10/15 08:05:31;;;;;;;6.40;3.30;;;;;;;22.06;100.00;100000.73;105814;1265;71390;-89
2023/10/15 08:08:02;;;;;;;6.10;2.90;;;;;;;22.11;100.00;100001.05;105905;1260;61788;-89
2023/10/15 08:10:34;;;;;;;4.70;2.80;;;;;;;22.10;100.00;99997.00;106990;1260;61369;-91
2023/10/15 08:13:05;;;;;;;6.80;2.80;;;;;;;22.15;100.00;99993.02;105888;1265;74661;-90
2023/10/15 08:15:33;;;;;;;4.70;2.90;;;;;;;22.21;100.00;99993.89;106147;1262;68618;-90
2023/10/15 08:18:02;;;;;;;9.40;3.00;;;;;;;22.32;100.00;99987.34;105834;1265;72731;-89
2023/10/15 08:20:33;;;;;;;7.00;2.80;;;;;;;22.39;100.00;99992.94;105803;1261;61398;-89
2023/10/15 08:23:01;;;;;;;7.00;3.20;;;;;;;22.44;100.00;99997.79;106436;1260;61323;-90
2023/10/15 08:25:31;;;;;;;6.30;3.00;;;;;;;22.50;100.00;100001.81;105797;1260;74683;-89
2023/10/15 08:28:02;;;;;;;3.80;2.50;;;;;;;22.50;100.00;100002.75;105889;1265;67700;-90
2023/10/15 08:30:36;;;;;;;4.90;2.90;;;;;;;22.49;100.00;100001.79;106011;1260;70534;-91
2023/10/15 08:33:10;;;;;;;4.60;3.00;;;;;;;22.43;100.00;99999.61;105950;1262;61321;-89
2023/10/15 08:35:40;;;;;;;7.30;3.20;;;;;;;22.40;100.00;100003.05;105946;1265;61271;-90
2023/10/15 08:38:09;;;;;;;4.30;3.00;;;;;;;22.40;100.00;100003.83;106024;1260;73433;-90
2023/10/15 08:40:41;;;;;;;6.10;3.10;;;;;;;22.41;100.00;100000.20;106184;1264;69585;-90
2023/10/15 08:43:14;;;;;;;6.00;3.30;;;;;;;22.44;100.00;99997.88;105691;1259;72670;-89
2023/10/15 08:45:43;;;;;;;5.20;3.20;;;;;;;22.45;100.00;99993.11;105783;1263;61310;-89
2023/10/15 08:48:11;;;;;;;4.40;2.90;;;;;;;22.51;100.00;99992.02;105785;1266;60601;-89
2023/10/15 08:50:39;;;;;;;5.60;3.90;;;;;;;22.55;100.00;99990.59;106466;1264;74661;-89
2023/10/15 08:53:07;;;;;;;6.10;3.30;;;;;;;22.63;100.00;99994.31;105647;1267;68388;-90
2023/10/15 08:55:36;;;;;;;7.00;3.80;;;;;;;22.67;100.00;99993.50;105634;1265;73174;-90
2023/10/15 08:58:06;;;;;;;6.70;4.00;;;;;;;22.67;100.00;99999.95;105859;1265;61250;-89
2023/10/15 09:00:36;;;;;;;8.70;3.60;;;;;;;22.74;100.00;99995.70;105804;1274;61170;-89
2023/10/15 09:03:04;;;;;;;7.30;3.50;;;;;;;22.77;100.00;99998.99;106531;1265;74567;-89
2023/10/15 09:05:33;;;;;;;5.80;3.40;;;;;;;22.79;100.00;99998.63;105761;1265;67113;-90
2023/10/15 09:08:08;;;;;;;5.90;3.20;;;;;;;22.84;100.00;99995.92;105739;1265;72665;-88
2023/10/15 09:10:40;;;;;;;5.70;3.50;;;;;;;22.87;100.00;100000.44;105767;1260;61659;-88
2023/10/15 09:13:14;;;;;;;;;;;;;;;22.89;100.00;100003.65;105830;1265;60366;-90
2023/10/15 09:15:49;;;;;;;9.60;3.60;;;;;;;22.92;100.00;99998.43;106248;1259;74688;-89
2023/10/15 09:18:18;;;;;;;10.00;3.70;;;;;;;22.87;100.00;100001.71;105733;1264;68471;-89
2023/10/15 09:20:50;;;;;;;6.40;3.40;;;;;;;22.93;100.00;99996.39;105729;1265;71553;-89
2023/10/15 09:23:23;;;;;;;5.10;3.40;;;;;;;22.93;100.00;99991.28;105861;1261;61354;-89
2023/10/15 09:25:52;;;;;;;6.80;4.00;;;;;;;22.94;100.00;99991.23;105749;1258;61302;-90
2023/10/15 09:28:20;;;;;;;7.00;3.80;;;;;;;22.93;100.00;99983.48;106079;1265;75376;-90
2023/10/15 09:30:48;;;;;;;7.30;3.90;;;;;;;22.85;100.00;99983.05;105667;1266;68730;-90
2023/10/15 09:33:17;;;;;;;6.40;3.50;;;;;;;22.86;100.00;99978.45;105788;1264;71422;-91
2023/10/15 09:35:45;;;;;;;6.90;3.90;;;;;;;22.96;100.00;99980.27;105633;1265;61595;-91
2023/10/15 09:38:14;;;;;;;8.10;3.90;;;;;;;22.95;100.00;99976.60;105864;1265;61481;-90
2023/10/15 09:40:45;;;;;;;7.10;3.80;;;;;;;22.95;100.00;99973.73;106094;1265;74677;-92
2023/10/15 09:43:14;;;;;;;7.60;3.90;;;;;;;22.92;100.00;99971.86;106234;1265;67127;-92
2023/10/15 09:45:42;;;;;;;5.90;3.70;;;;;;;22.95;100.00;99970.94;105911;1273;72739;-90
2023/10/15 09:48:10;;;;;;;6.50;3.70;;;;;;;23.01;100.00;99964.45;105803;1260;62214;-91
2023/10/15 09:50:38;;;;;;;6.10;3.90;;;;;;;23.09;100.00;99960.91;105986;1259;61851;-91
2023/10/15 09:53:46;;;;;;;6.00;4.20;;;;;;;23.19;99.92;99962.01;105822;1264;73494;-90
2023/10/15 09:57:05;;;;;;;9.10;4.00;;;;;;;23.26;99.05;99959.23;105752;1265;67839;-91
2023/10/15 10:00:32;;;;;;;6.00;3.60;;;;;;;23.29;99.00;99961.51;105735;1263;72714;-90
2023/10/15 10:03:47;;;;;;;6.00;3.70;;;;;;;23.33;98.55;99954.48;105670;1266;61293;-91
2023/10/15 10:07:01;;;;;;;8.50;4.10;;;;;;;23.34;97.70;99957.04;105968;1262;61800;-91
2023/10/15 10:10:17;;;;;;;9.30;4.50;;;;;;;23.31;97.28;99959.86;105816;1260;73470;-92
2023/10/15 10:13:34;;;;;;;6.80;3.80;;;;;;;23.35;96.66;99956.01;106448;1263;67115;-93
2023/10/15 10:16:47;;;;;;;8.20;3.50;;;;;;;23.37;95.93;99959.55;106072;1262;71301;-90
2023/10/15 10:20:10;;;;;;;5.00;4.30;;;;;;;23.38;95.71;99959.56;106073;1261;61295;-90
2023/10/15 10:23:23;;;;;;;11.30;4.70;;;;;;;23.31;96.22;99964.09;106430;1260;61208;-90
2023/10/15 10:26:49;;;;;;;6.20;4.00;;;;;;;23.27;96.86;99964.75;105836;1265;74693;-91
2023/10/15 10:30:02;;;;;;;7.20;4.10;;;;;;;23.19;97.11;99964.02;105901;1267;67037;-91
2023/10/15 10:32:49;;;;;;;;;;;;;;;23.13;97.74;99960.73;106002;1264;72716;-91
2023/10/15 10:36:02;;;;;;;10.40;4.90;;;;;;;23.16;97.31;99965.07;106070;1267;61168;-90
2023/10/15 10:39:15;;;;;;;6.50;3.90;;;;;;;23.19;97.29;99962.25;105640;1265;61221;-91
2023/10/15 10:42:26;;;;;;;5.60;4.00;;;;;;;23.25;97.12;99965.76;105974;1264;73884;-80
2023/10/15 10:44:56;;;;;;;11.90;5.20;;;;;;;23.27;96.93;99964.83;105656;1265;67140;-82
2023/10/15 10:47:24;;;;;;;8.50;4.60;;;;;;;23.26;97.19;99966.64;107159;1260;72699;-86
2023/10/15 10:49:58;;;;;;;6.60;4.10;;;;;;;23.26;97.29;99967.27;105849;1265;62248;-82
2023/10/15 10:52:34;;;;;;;9.50;4.10;;;;;;;23.21;97.69;99967.93;105569;1260;61351;-86
2023/10/15 10:55:34;;;;;;;6.50;4.40;;;;;;;23.23;97.99;99966.19;105719;1265;73337;-87
2023/10/15 10:58:03;;;;;;;10.60;4.90;;;;;;;23.29;97.38;99962.77;105825;1261;68448;-86
2023/10/15 11:00:31;;;;;;;14.70;5.40;;;;;;;23.23;97.71;99961.60;107194;1260;70977;-87
2023/10/15 11:03:01;;;;;;;9.00;4.10;;;;;;;23.26;97.36;99961.70;105600;1259;61693;-82
2023/10/15 11:05:29;;;;;;;5.60;4.80;;;;;;;23.26;96.90;99960.43;105835;1261;61170;-82
2023/10/15 11:07:57;;;;;;;8.50;4.90;;;;;;;23.28;96.50;99958.95;105795;1265;74708;-82
2023/10/15 11:10:25;;;;;;;9.80;5.20;;;;;;;23.32;96.43;99961.86;105826;1264;67130;-82
2023/10/15 11:12:56;;;;;;;7.60;5.20;;;;;;;23.37;95.81;99964.09;105580;1261;73204;-82
2023/10/15 11:15:24;;;;;;;8.80;4.80;;;;;;;23.34;96.03;99958.46;106677;1260;61714;-88
2023/10/15 11:17:58;;;;;;;8.20;4.90;;;;;;;23.35;95.99;99955.05;105874;1264;61253;-82
2023/10/15 11:20:27;;;;;;;8.60;5.50;;;;;;;23.37;95.86;99952.77;105739;1261;74635;-85
2023/10/15 11:22:59;;;;;;;10.80;5.90;;;;;;;23.42;95.54;99950.21;105871;1261;68414;-82
2023/10/15 11:25:27;;;;;;;8.20;5.70;;;;;;;23.40;95.40;99947.64;105825;1260;72692;-87
2023/10/15 11:28:06;;;;;;;12.60;6.70;;;;;;;23.44;95.00;99947.70;106045;1265;62393;-83
2023/10/15 11:30:34;;;;;;;13.20;7.70;;;;;;;23.43;94.58;99946.08;105918;1260;61167;-86
2023/10/15 11:33:07;;;;;;;10.00;6.80;;;;;;;23.42;94.62;99945.11;105589;1267;74731;-86
2023/10/15 11:35:35;;;;;;;11.40;6.70;;;;;;;23.40;95.32;99940.61;105599;1261;273482;-87
2023/10/15 11:38:10;;;;;;;10.50;6.90;;;;;;;23.37;96.27;99938.83;105644;1265;71275;-87
2023/10/15 11:40:38;;;;;;;15.70;7.20;;;;;;;23.44;96.86;99933.67;107008;1260;61652;-82
2023/10/15 11:43:17;;;;;;;12.10;7.50;;;;;;;23.56;95.48;99936.68;105726;1264;61369;-82
2023/10/15 11:45:48;;;;;;;14.20;7.20;;;;;;;23.59;95.00;99938.16;105684;1261;73408;-87
2023/10/15 11:48:21;;;;;;;13.90;7.20;;;;;;;23.66;94.44;99937.21;105819;1264;67189;-82
2023/10/15 11:50:49;;;;;;;11.80;7.90;;;;;;;23.73;93.83;99937.39;105798;1261;71784;-87
2023/10/15 11:53:20;;;;;;;11.50;7.30;;;;;;;23.80;93.04;99935.73;106318;1266;61221;-82
2023/10/15 11:55:47;;;;;;;12.80;7.00;;;;;;;23.95;91.85;99927.83;105745;1260;61410;-82
2023/10/15 11:58:16;;;;;;;14.40;7.10;;;;;;;24.03;90.85;99930.15;105646;1261;73518;-87
2023/10/15 12:00:47;;;;;;;11.40;7.50;;;;;;;24.09;90.38;99929.09;105792;1261;67468;-87
2023/10/15 12:03:16;;;;;;;13.80;7.90;;;;;;;24.09;89.38;99928.38;105873;1260;73300;-82
2023/10/15 12:05:44;;;;;;;14.10;8.50;;;;;;;24.11;87.63;99928.63;106761;1260;61186;-87
2023/10/15 12:08:26;;;;;;;12.90;8.40;;;;;;;24.09;87.59;99925.25;105804;1264;61097;-82
2023/10/15 12:10:54;;;;;;;13.40;8.20;;;;;;;24.02;87.62;99925.52;105822;1264;73436;-82
2023/10/15 12:13:23;;;;;;;11.70;7.70;;;;;;;24.01;87.67;99925.26;105779;1263;67611;-82
2023/10/15 12:15:50;;;;;;;15.30;7.50;;;;;;;24.05;87.19;99923.39;105984;1259;71190;-82
2023/10/15 12:18:18;;;;;;;13.80;7.90;;;;;;;24.06;87.04;99929.37;106264;1265;61385;-82
2023/10/15 12:20:46;;;;;;;14.20;7.80;;;;;;;24.10;86.94;99925.75;105769;1260;61324;-82
2023/10/15 12:23:14;;;;;;;11.40;8.30;;;;;;;24.12;86.32;99927.27;105816;1261;73530;-83
2023/10/15 12:25:42;;;;;;;11.30;7.40;;;;;;;24.13;86.12;99925.69;105846;1260;68685;-87
2023/10/15 12:28:10;;;;;;;12.70;8.20;;;;;;;24.14;85.76;99929.52;105823;1264;72756;-86
2023/10/15 12:30:40;;;;;;;13.80;8.40;;;;;;;24.13;85.28;99929.04;106448;1259;61308;-81
2023/10/15 12:33:08;;;;;;;13.10;8.40;;;;;;;24.08;85.11;99925.33;105652;1260;61363;-82
2023/10/15 12:35:36;;;;;;;15.70;8.70;;;;;;;24.06;84.92;99923.86;105802;1260;74628;-84
2023/10/15 12:38:12;;;;;;;16.10;8.00;;;;;;;24.04;84.76;99926.48;105810;1261;68361;-82
2023/10/15 12:40:40;;;;;;;15.50;8.10;;;;;;;23.99;84.91;99927.86;105841;1261;72732;-82
2023/10/15 12:43:08;;;;;;;14.90;8.40;;;;;;;23.96;85.02;99923.78;106185;1264;61354;-82
2023/10/15 12:45:36;;;;;;;12.20;7.90;;;;;;;23.90;85.27;99929.61;105778;1261;61317;-81
2023/10/15 12:48:05;;;;;;;14.20;8.60;;;;;;;23.80;86.11;99925.05;105757;1260;74715;-85